createdAt,value
2018-05-03T00:00:06.127Z,97.60
2018-05-03T00:02:34.431Z,96.80
2018-05-03T00:05:02.760Z,97.00
2018-05-03T00:07:30.344Z,97.00
2018-05-03T00:09:57.959Z,97.30
2018-05-03T00:12:25.500Z,97.20
2018-05-03T00:14:53.851Z,97.50
2018-05-03T00:17:21.403Z,97.50
2018-05-03T00:19:48.981Z,97.80
2018-05-03T00:22:16.512Z,97.90
2018-05-03T00:24:44.084Z,98.00
2018-05-03T00:27:11.623Z,98.00
2018-05-03T00:29:39.176Z,98.30
2018-05-03T00:32:06.745Z,98.40
2018-05-03T00:34:34.301Z,98.70
2018-05-03T00:37:01.935Z,98.50
2018-05-03T00:39:29.475Z,98.70
2018-05-03T00:41:58.774Z,98.50
2018-05-03T00:44:27.083Z,98.70
2018-05-03T00:46:54.636Z,98.70
2018-05-03T00:49:22.185Z,98.90
2018-05-03T00:51:50.533Z,99.10
2018-05-03T00:54:29.939Z,99.10
2018-05-03T00:56:57.508Z,99.50
2018-05-03T00:59:25.076Z,99.30
2018-05-03T01:01:52.636Z,99.30
2018-05-03T01:04:20.194Z,99.20
2018-05-03T01:06:47.777Z,99.40
2018-05-03T01:09:16.282Z,99.40
2018-05-03T01:11:44.698Z,99.10
2018-05-03T01:14:12.225Z,99.10
2018-05-03T01:16:40.536Z,98.50
2018-05-03T01:19:08.097Z,98.50
2018-05-03T01:21:35.660Z,98.50
2018-05-03T01:24:03.193Z,98.00
2018-05-03T01:26:36.682Z,97.50
2018-05-03T01:29:04.997Z,97.10
2018-05-03T01:31:32.597Z,97.10
2018-05-03T01:34:00.131Z,97.00
2018-05-03T01:36:29.912Z,97.10
2018-05-03T01:38:57.464Z,97.20
2018-05-03T01:41:25.021Z,97.40
2018-05-03T01:43:52.586Z,97.20
2018-05-03T01:46:20.148Z,97.00
2018-05-03T01:48:47.702Z,97.20
2018-05-03T01:51:15.281Z,97.60
2018-05-03T01:53:42.851Z,97.20
2018-05-03T01:56:10.410Z,97.50
2018-05-03T01:58:37.959Z,97.50
2018-05-03T02:01:05.518Z,97.20
2018-05-03T02:03:33.090Z,97.50
2018-05-03T02:06:01.628Z,97.40
2018-05-03T02:08:29.988Z,97.20
2018-05-03T02:10:57.543Z,97.20
2018-05-03T02:13:25.130Z,97.10
2018-05-03T02:15:52.668Z,97.30
2018-05-03T02:18:20.265Z,97.80
2018-05-03T02:20:48.568Z,98.10
2018-05-03T02:23:16.141Z,98.10
2018-05-03T02:25:43.697Z,98.00
2018-05-03T02:28:11.246Z,98.10
2018-05-03T02:30:38.816Z,98.30
2018-05-03T02:33:06.353Z,98.20
2018-05-03T02:35:33.946Z,98.30
2018-05-03T02:38:01.493Z,99.00
2018-05-03T02:43:21.584Z,98.10
2018-05-03T02:45:49.157Z,98.10
2018-05-03T02:48:17.700Z,98.10
2018-05-03T02:50:46.018Z,97.90
2018-05-03T02:53:13.576Z,97.90
2018-05-03T02:55:41.142Z,98.50
2018-05-03T02:58:20.667Z,99.10
2018-05-03T03:01:05.889Z,99.20
2018-05-03T03:03:51.062Z,98.90
2018-05-03T03:10:02.433Z,99.50
2018-05-03T03:16:00.045Z,99.60
2018-05-03T03:18:45.174Z,99.80
2018-05-03T03:21:30.310Z,99.90
2018-05-03T03:24:15.546Z,99.90
2018-05-03T03:27:00.902Z,99.90
2018-05-03T03:29:43.341Z,99.90
2018-05-03T03:32:22.867Z,99.90
2018-05-03T03:38:22.618Z,99.90
2018-05-03T03:41:01.981Z,99.90
2018-05-03T03:43:41.339Z,99.90
2018-05-03T03:46:09.695Z,99.90
2018-05-03T03:48:37.265Z,99.90
2018-05-03T03:51:04.801Z,99.90
2018-05-03T03:53:32.325Z,99.90
2018-05-03T03:55:59.895Z,99.90
2018-05-03T03:58:27.423Z,99.90
2018-05-03T04:00:55.736Z,99.90
2018-05-03T04:03:23.265Z,99.90
2018-05-03T04:05:51.645Z,99.90
2018-05-03T04:08:24.105Z,99.90
2018-05-03T04:10:51.675Z,99.90
2018-05-03T04:13:20.018Z,99.90
2018-05-03T04:15:47.568Z,99.90
2018-05-03T04:18:27.105Z,99.90
2018-05-03T04:21:09.333Z,99.90
2018-05-03T04:23:48.799Z,99.90
2018-05-03T04:26:19.041Z,99.90
2018-05-03T04:28:46.579Z,99.90
2018-05-03T04:31:14.948Z,99.90
2018-05-03T04:33:43.279Z,99.90
2018-05-03T04:36:10.860Z,99.90
2018-05-03T04:38:38.390Z,99.90
2018-05-03T04:41:05.943Z,99.90
2018-05-03T04:43:33.527Z,99.90
2018-05-03T04:46:01.064Z,99.90
2018-05-03T04:48:28.617Z,99.90
2018-05-03T04:50:56.151Z,99.90
2018-05-03T04:53:24.463Z,99.90
2018-05-03T04:55:52.013Z,99.90
2018-05-03T04:58:19.574Z,99.90
2018-05-03T05:00:47.113Z,99.90
2018-05-03T05:03:15.435Z,99.80
2018-05-03T05:05:43.203Z,99.80
2018-05-03T05:08:10.810Z,99.90
2018-05-03T05:10:38.422Z,99.90
2018-05-03T05:13:05.933Z,99.90
2018-05-03T05:15:34.239Z,99.50
2018-05-03T05:18:01.852Z,99.50
2018-05-03T05:20:30.160Z,98.30
2018-05-03T05:23:04.477Z,98.30
2018-05-03T05:25:32.776Z,96.40
2018-05-03T05:28:00.311Z,96.30
2018-05-03T05:30:29.642Z,95.00
2018-05-03T05:32:59.104Z,95.30
2018-05-03T05:35:26.669Z,94.40
2018-05-03T05:37:54.281Z,94.10
2018-05-03T05:40:21.864Z,94.40
2018-05-03T05:42:49.412Z,93.50
2018-05-03T05:45:16.976Z,94.20
2018-05-03T05:47:44.521Z,93.20
2018-05-03T05:50:13.109Z,93.10
2018-05-03T05:52:40.661Z,92.50
2018-05-03T05:55:08.228Z,91.70
2018-05-03T05:57:35.769Z,90.50
2018-05-03T06:00:03.350Z,87.30
2018-05-03T06:02:30.894Z,85.40
2018-05-03T06:04:58.496Z,85.00
2018-05-03T06:07:26.073Z,84.90
2018-05-03T06:09:53.719Z,83.60
2018-05-03T06:12:21.315Z,83.10
2018-05-03T06:14:48.862Z,78.80
2018-05-03T06:17:16.492Z,77.90
2018-05-03T06:19:44.737Z,72.90
2018-05-03T06:22:12.301Z,72.90
2018-05-03T06:24:39.838Z,72.70
2018-05-03T06:27:08.176Z,69.20
2018-05-03T06:29:35.714Z,69.20
2018-05-03T06:32:03.271Z,66.00
2018-05-03T06:34:30.800Z,66.10
2018-05-03T06:36:59.132Z,66.50
2018-05-03T06:39:26.672Z,66.80
2018-05-03T06:41:54.243Z,69.80
2018-05-03T06:44:22.571Z,73.70
2018-05-03T06:46:50.885Z,73.90
2018-05-03T06:49:21.669Z,73.80
2018-05-03T06:51:49.227Z,74.90
2018-05-03T06:54:16.764Z,75.80
2018-05-03T06:56:44.356Z,71.40
2018-05-03T06:59:13.666Z,71.50
2018-05-03T07:01:41.970Z,72.50
2018-05-03T07:04:10.649Z,72.50
2018-05-03T07:06:38.107Z,73.20
2018-05-03T07:09:05.669Z,72.70
2018-05-03T07:11:33.228Z,70.80
2018-05-03T07:14:00.792Z,63.20
2018-05-03T07:16:28.350Z,62.00
2018-05-03T07:18:55.911Z,63.10
2018-05-03T07:21:23.558Z,64.50
2018-05-03T07:23:51.087Z,62.10
2018-05-03T07:26:18.591Z,61.00
2018-05-03T07:28:46.155Z,59.70
2018-05-03T07:31:13.692Z,64.00
2018-05-03T07:33:42.018Z,70.20
2018-05-03T07:36:09.558Z,70.20
2018-05-03T07:38:37.141Z,72.20
2018-05-03T07:41:04.681Z,75.60
2018-05-03T07:43:32.212Z,77.60
2018-05-03T07:46:00.554Z,79.50
2018-05-03T07:48:28.181Z,79.50
2018-05-03T07:50:55.710Z,80.10
2018-05-03T07:53:24.002Z,81.20
2018-05-03T07:55:51.567Z,81.10
2018-05-03T07:58:19.092Z,82.20
2018-05-03T08:00:46.661Z,82.30
2018-05-03T08:03:14.961Z,83.80
2018-05-03T08:05:42.640Z,83.70
2018-05-03T08:08:10.095Z,83.00
2018-05-03T08:10:37.668Z,80.40
2018-05-03T08:13:05.209Z,80.30
2018-05-03T08:15:32.773Z,77.60
2018-05-03T08:18:00.329Z,74.50
2018-05-03T08:20:27.894Z,72.60
2018-05-03T08:22:55.438Z,68.50
2018-05-03T08:25:23.013Z,65.60
2018-05-03T08:27:50.549Z,66.40
2018-05-03T08:30:18.895Z,61.20
2018-05-03T08:32:46.451Z,61.20
2018-05-03T08:35:14.033Z,60.00
2018-05-03T08:37:41.568Z,58.50
2018-05-03T08:40:09.133Z,60.30
2018-05-03T08:42:36.972Z,65.30
2018-05-03T08:45:04.538Z,66.90
2018-05-03T08:47:32.190Z,67.90
2018-05-03T08:49:59.771Z,61.30
2018-05-03T08:52:27.348Z,58.90
2018-05-03T08:54:54.899Z,61.20
2018-05-03T08:57:22.534Z,60.30
2018-05-03T08:59:51.072Z,58.10
2018-05-03T09:02:19.608Z,58.10
2018-05-03T09:04:47.127Z,60.20
2018-05-03T09:07:15.454Z,56.90
2018-05-03T09:09:43.009Z,57.60
2018-05-03T09:12:10.573Z,59.00
2018-05-03T09:14:38.108Z,59.90
2018-05-03T09:17:05.689Z,55.70
2018-05-03T09:19:33.235Z,53.30
2018-05-03T09:22:00.770Z,53.20
2018-05-03T09:24:29.084Z,52.40
2018-05-03T09:26:56.616Z,52.40
2018-05-03T09:29:24.178Z,54.70
2018-05-03T09:31:51.717Z,54.30
2018-05-03T09:34:20.085Z,55.50
2018-05-03T09:36:48.394Z,56.20
2018-05-03T09:39:16.058Z,56.10
2018-05-03T09:41:43.540Z,54.60
2018-05-03T09:44:14.376Z,51.80
2018-05-03T09:46:47.684Z,55.70
2018-05-03T09:49:16.275Z,56.10
2018-05-03T09:51:43.836Z,57.00
2018-05-03T09:54:11.396Z,56.80
2018-05-03T09:56:38.944Z,56.90
2018-05-03T09:59:06.519Z,56.20
2018-05-03T10:01:34.050Z,53.10
2018-05-03T10:04:05.195Z,53.10
2018-05-03T10:06:32.801Z,52.30
2018-05-03T10:09:00.341Z,51.20
2018-05-03T10:11:27.901Z,52.80
2018-05-03T10:13:55.436Z,51.50
2018-05-03T10:16:23.002Z,51.40
2018-05-03T10:18:50.562Z,55.20
2018-05-03T10:21:18.133Z,56.90
2018-05-03T10:23:45.677Z,55.40
2018-05-03T10:26:13.250Z,57.10
2018-05-03T10:28:40.806Z,62.40
2018-05-03T10:31:08.392Z,58.20
2018-05-03T10:33:35.921Z,57.60
2018-05-03T10:36:03.562Z,56.30
2018-05-03T10:38:31.100Z,57.30
2018-05-03T10:41:02.509Z,53.30
2018-05-03T10:43:31.042Z,53.20
2018-05-03T10:45:59.382Z,51.80
2018-05-03T10:48:26.921Z,51.60
2018-05-03T10:50:54.553Z,52.50
2018-05-03T10:53:22.113Z,51.60
2018-05-03T10:55:49.665Z,52.20
2018-05-03T10:58:17.281Z,54.10
2018-05-03T11:00:45.789Z,52.60
2018-05-03T11:03:15.122Z,55.10
2018-05-03T11:05:42.669Z,55.10
2018-05-03T11:08:11.004Z,52.20
2018-05-03T11:10:38.546Z,52.20
2018-05-03T11:13:06.113Z,51.90
2018-05-03T11:15:35.117Z,51.80
2018-05-03T11:18:02.678Z,51.20
2018-05-03T11:20:30.225Z,53.20
2018-05-03T11:22:57.808Z,54.90
2018-05-03T11:25:25.383Z,57.70
2018-05-03T11:27:53.717Z,51.70
2018-05-03T11:30:21.256Z,51.60
2018-05-03T11:32:48.812Z,54.70
2018-05-03T11:35:16.373Z,51.20
2018-05-03T11:37:43.907Z,52.40
2018-05-03T11:40:12.244Z,55.70
2018-05-03T11:42:39.881Z,55.70
2018-05-03T11:45:07.389Z,55.50
2018-05-03T11:47:34.948Z,54.10
2018-05-03T11:50:02.560Z,52.30
2018-05-03T11:52:30.117Z,55.60
2018-05-03T11:54:57.699Z,55.20
2018-05-03T11:57:25.241Z,55.00
2018-05-03T11:59:52.793Z,53.20
2018-05-03T12:02:20.342Z,51.30
2018-05-03T12:04:48.681Z,55.20
2018-05-03T12:07:16.215Z,55.20
2018-05-03T12:09:43.773Z,56.60
2018-05-03T12:12:11.345Z,57.20
2018-05-03T12:14:38.897Z,58.10
2018-05-03T12:17:06.446Z,54.20
2018-05-03T12:19:33.989Z,55.40
2018-05-03T12:22:01.550Z,53.90
2018-05-03T12:24:29.110Z,55.30
2018-05-03T12:26:56.672Z,57.50
2018-05-03T12:29:24.208Z,59.10
2018-05-03T12:31:51.792Z,60.70
2018-05-03T12:34:20.096Z,61.40
2018-05-03T12:36:47.678Z,61.50
2018-05-03T12:39:15.237Z,61.40
2018-05-03T12:41:42.805Z,63.30
2018-05-03T12:44:10.387Z,61.30
2018-05-03T12:46:37.936Z,59.40
2018-05-03T12:49:05.524Z,58.30
2018-05-03T12:51:33.127Z,58.50
2018-05-03T12:54:00.684Z,56.60
2018-05-03T12:56:28.238Z,56.30
2018-05-03T12:58:55.798Z,55.60
2018-05-03T13:01:24.243Z,54.80
2018-05-03T13:03:52.564Z,57.50
2018-05-03T13:06:20.097Z,57.20
2018-05-03T13:08:47.695Z,56.50
2018-05-03T13:11:15.294Z,55.00
2018-05-03T13:13:42.861Z,55.90
2018-05-03T13:16:10.402Z,57.70
2018-05-03T13:18:37.993Z,53.20
2018-05-03T13:21:05.530Z,56.10
2018-05-03T13:23:33.115Z,56.60
2018-05-03T13:26:01.432Z,54.10
2018-05-03T13:28:28.968Z,54.00
2018-05-03T13:30:58.462Z,56.40
2018-05-03T13:33:26.937Z,56.40
2018-05-03T13:35:56.466Z,58.80
2018-05-03T13:38:24.013Z,58.70
2018-05-03T13:40:51.604Z,58.30
2018-05-03T13:43:19.149Z,57.10
2018-05-03T13:45:46.709Z,57.10
2018-05-03T13:48:14.280Z,57.40
2018-05-03T13:50:41.838Z,57.50
2018-05-03T13:53:09.373Z,58.30
2018-05-03T13:55:36.992Z,58.70
2018-05-03T13:58:04.547Z,58.00
2018-05-03T14:00:32.157Z,58.90
2018-05-03T14:02:59.736Z,58.80
2018-05-03T14:05:27.297Z,58.40
2018-05-03T14:07:54.866Z,57.80
2018-05-03T14:10:22.410Z,59.10
2018-05-03T14:12:49.989Z,56.90
2018-05-03T14:15:17.594Z,59.00
2018-05-03T14:17:45.957Z,61.20
2018-05-03T14:20:13.689Z,61.20
2018-05-03T14:22:41.279Z,61.50
2018-05-03T14:25:08.813Z,62.00
2018-05-03T14:27:36.385Z,62.30
2018-05-03T14:30:03.930Z,62.50
2018-05-03T14:32:31.512Z,64.40
2018-05-03T14:34:59.061Z,65.00
2018-05-03T14:37:26.632Z,64.50
2018-05-03T14:39:54.202Z,64.80
2018-05-03T14:42:21.804Z,64.50
2018-05-03T14:44:49.358Z,65.40
2018-05-03T14:47:17.747Z,65.50
2018-05-03T14:49:45.243Z,65.50
2018-05-03T14:52:13.552Z,64.00
2018-05-03T14:54:41.111Z,64.00
2018-05-03T14:57:08.652Z,65.60
2018-05-03T14:59:36.233Z,65.90
2018-05-03T15:02:03.789Z,67.10
2018-05-03T15:04:31.501Z,68.50
2018-05-03T15:06:59.048Z,68.20
2018-05-03T15:09:26.686Z,68.40
2018-05-03T15:11:54.268Z,70.20
2018-05-03T15:14:21.834Z,71.40
2018-05-03T15:16:49.376Z,72.40
2018-05-03T15:19:17.715Z,72.60
2018-05-03T15:21:46.020Z,72.70
2018-05-03T15:24:13.687Z,72.70
2018-05-03T15:26:41.192Z,73.00
2018-05-03T15:29:08.774Z,73.10
2018-05-03T15:31:36.326Z,73.90
2018-05-03T15:34:04.569Z,73.00
2018-05-03T15:36:32.117Z,73.10
2018-05-03T15:38:59.672Z,73.70
2018-05-03T15:41:28.049Z,76.60
2018-05-03T15:43:56.357Z,77.50
2018-05-03T15:46:23.958Z,77.50
2018-05-03T15:48:51.522Z,77.50
2018-05-03T15:51:20.059Z,76.60
2018-05-03T15:53:47.682Z,76.20
2018-05-03T15:56:16.209Z,75.90
2018-05-03T15:58:43.742Z,76.10
2018-05-03T16:01:11.331Z,75.90
2018-05-03T16:03:38.870Z,76.00
2018-05-03T16:06:06.486Z,76.10
2018-05-03T16:08:34.061Z,77.40
2018-05-03T16:11:01.634Z,76.00
2018-05-03T16:13:29.180Z,76.60
2018-05-03T16:15:56.773Z,75.20
2018-05-03T16:18:24.325Z,75.50
2018-05-03T16:20:52.638Z,74.50
2018-05-03T16:23:20.216Z,74.50
2018-05-03T16:25:47.769Z,74.60
2018-05-03T16:28:15.332Z,74.90
2018-05-03T16:30:43.206Z,74.10
2018-05-03T16:33:10.850Z,74.10
2018-05-03T16:35:38.408Z,75.10
2018-05-03T16:38:05.972Z,74.40
2018-05-03T17:24:15.536Z,72.40
2018-05-03T17:26:43.078Z,61.40
2018-05-03T17:29:10.673Z,61.00
2018-05-03T17:31:38.213Z,60.00
2018-05-03T17:34:05.764Z,60.40
2018-05-03T17:36:33.437Z,59.60
2018-05-03T17:39:01.046Z,59.30
2018-05-03T17:41:28.618Z,59.40
2018-05-03T17:43:56.203Z,60.50
2018-05-03T17:46:23.781Z,59.30
2018-05-03T17:48:51.320Z,58.80
2018-05-03T17:51:18.982Z,58.10
2018-05-03T17:53:46.458Z,58.50
2018-05-03T17:56:14.042Z,58.40
2018-05-03T17:58:41.573Z,58.20
2018-05-03T18:01:09.138Z,57.40
2018-05-03T18:03:36.685Z,58.10
2018-05-03T18:06:06.207Z,59.40
2018-05-03T18:08:34.767Z,57.90
2018-05-03T18:11:02.339Z,58.20
2018-05-03T18:13:29.864Z,55.90
2018-05-03T18:15:57.438Z,56.00
2018-05-03T18:18:24.984Z,55.50
2018-05-03T18:20:52.577Z,55.00
2018-05-03T18:23:20.130Z,55.10
2018-05-03T18:25:47.736Z,54.20
2018-05-03T18:28:15.333Z,54.80
2018-05-03T18:30:43.172Z,55.20
2018-05-03T18:33:10.763Z,55.10
2018-05-03T18:35:38.309Z,56.10
2018-05-03T18:38:06.678Z,56.80
2018-05-03T18:40:34.188Z,56.90
2018-05-03T18:43:01.761Z,57.20
2018-05-03T18:45:29.305Z,57.70
2018-05-03T18:47:56.868Z,57.50
2018-05-03T18:50:24.412Z,58.30
2018-05-03T18:52:51.987Z,58.90
2018-05-03T18:55:19.518Z,59.00
2018-05-03T18:57:47.841Z,59.70
2018-05-03T19:00:15.384Z,59.70
2018-05-03T19:02:42.991Z,60.30
2018-05-03T19:05:10.556Z,60.00
2018-05-03T19:07:38.138Z,60.00
2018-05-03T19:10:05.712Z,60.40
2018-05-03T19:12:33.264Z,60.60
2018-05-03T19:15:00.834Z,60.80
2018-05-03T19:17:28.380Z,61.50
2018-05-03T19:19:56.697Z,62.10
2018-05-03T19:22:25.241Z,62.10
2018-05-03T19:24:53.584Z,63.80
2018-05-03T19:27:21.133Z,63.70
2018-05-03T19:29:48.710Z,64.10
2018-05-03T19:32:16.248Z,64.80
2018-05-03T19:34:43.833Z,64.80
2018-05-03T19:37:11.394Z,65.60
2018-05-03T19:39:38.955Z,66.60
2018-05-03T19:42:06.492Z,67.60
2018-05-03T19:44:34.075Z,67.80
2018-05-03T19:47:01.613Z,67.90
2018-05-03T19:49:29.179Z,69.00
2018-05-03T19:51:56.751Z,69.30
2018-05-03T19:54:24.293Z,69.60
2018-05-03T19:56:51.855Z,69.80
2018-05-03T19:59:19.396Z,71.00
2018-05-03T20:01:46.975Z,70.80
2018-05-03T20:04:14.539Z,71.00
2018-05-03T20:06:42.118Z,71.10
2018-05-03T20:09:09.727Z,71.90
2018-05-03T20:11:37.281Z,71.80
2018-05-03T20:14:04.880Z,71.80
2018-05-03T20:16:32.452Z,72.40
2018-05-03T20:18:59.996Z,72.60
2018-05-03T20:21:27.543Z,72.60
2018-05-03T20:23:56.012Z,72.30
2018-05-03T20:26:23.587Z,73.50
2018-05-03T20:28:51.125Z,74.00
2018-05-03T20:31:18.722Z,73.50
2018-05-03T20:33:47.092Z,73.80
2018-05-03T20:36:14.636Z,73.70
2018-05-03T20:38:42.194Z,73.60
2018-05-03T20:41:09.727Z,73.80
2018-05-03T20:43:38.160Z,74.20
2018-05-03T20:46:06.806Z,74.10
2018-05-03T20:48:34.325Z,74.60
2018-05-03T20:51:01.883Z,74.70
2018-05-03T20:53:29.444Z,75.00
2018-05-03T20:55:57.021Z,75.20
2018-05-03T20:58:25.346Z,75.80
2018-05-03T21:00:52.887Z,75.40
2018-05-03T21:03:20.459Z,75.60
2018-05-03T21:05:48.009Z,76.50
2018-05-03T21:08:15.591Z,76.80
2018-05-03T21:10:43.156Z,76.30
2018-05-03T21:13:10.708Z,76.20
2018-05-03T21:15:38.257Z,76.40
2018-05-03T21:18:05.823Z,76.20
2018-05-03T21:20:33.380Z,76.60
2018-05-03T21:23:00.912Z,76.80
2018-05-03T21:25:29.237Z,77.50
2018-05-03T21:27:56.787Z,77.40
2018-05-03T21:30:25.244Z,77.70
2018-05-03T21:32:53.546Z,77.60
2018-05-03T21:35:21.112Z,77.50
2018-05-03T21:37:48.652Z,78.20
2018-05-03T21:40:16.216Z,78.40
2018-05-03T21:42:44.911Z,78.70
2018-05-03T21:45:12.505Z,79.30
2018-05-03T21:47:40.050Z,79.80
2018-05-03T21:50:07.607Z,80.90
2018-05-03T21:52:35.176Z,81.40
2018-05-03T21:55:02.819Z,82.10
2018-05-03T21:57:30.359Z,82.60
2018-05-03T21:59:57.946Z,83.50
2018-05-03T22:02:25.481Z,84.00
2018-05-03T22:04:53.168Z,84.80
2018-05-03T22:07:20.716Z,84.90
2018-05-03T22:09:48.272Z,85.40
2018-05-03T22:12:15.815Z,85.80
2018-05-03T22:14:44.145Z,87.00
2018-05-03T22:17:11.716Z,87.00
2018-05-03T22:19:39.255Z,87.00
2018-05-03T22:22:06.808Z,87.40
2018-05-03T22:24:34.359Z,87.50
2018-05-03T22:27:01.903Z,88.00
2018-05-03T22:29:29.432Z,88.20
2018-05-03T22:31:57.007Z,88.50
2018-05-03T22:34:24.542Z,88.80
2018-05-03T22:36:52.107Z,89.40
2018-05-03T22:39:19.672Z,89.10
2018-05-03T22:41:47.215Z,89.60
2018-05-03T22:44:14.780Z,90.30
2018-05-03T22:46:42.323Z,90.50
2018-05-03T22:49:09.847Z,90.50
2018-05-03T22:51:37.405Z,90.70
2018-05-03T22:54:04.942Z,90.90
2018-05-03T22:56:33.238Z,91.20
2018-05-03T22:59:00.801Z,91.10
2018-05-03T23:01:28.358Z,90.80
2018-05-03T23:03:55.910Z,91.00
2018-05-03T23:06:24.243Z,91.00
2018-05-03T23:08:51.824Z,91.00
2018-05-03T23:11:19.344Z,91.10
2018-05-03T23:13:46.896Z,91.00
2018-05-03T23:16:14.429Z,90.90
2018-05-03T23:18:42.742Z,91.30
2018-05-03T23:21:10.321Z,91.20
2018-05-03T23:23:37.887Z,91.40
2018-05-03T23:26:05.411Z,91.50
2018-05-03T23:28:32.964Z,91.70
2018-05-03T23:31:00.499Z,91.70
2018-05-03T23:33:28.810Z,92.20
2018-05-03T23:35:56.358Z,92.20
2018-05-03T23:38:23.939Z,92.20
2018-05-03T23:41:05.533Z,92.80
2018-05-03T23:43:33.121Z,92.90
2018-05-03T23:46:00.652Z,92.80
2018-05-03T23:48:28.196Z,93.10
2018-05-03T23:50:55.782Z,93.50
2018-05-03T23:53:23.333Z,94.10
2018-05-03T23:55:50.891Z,94.10
2018-05-03T23:58:18.453Z,94.30
